X  Luk Metar data     KDNN Dalton Municipal Airport
Temperatur
55°F Temperatur
23°F Duggpunkt
28% Fugtighed



Vind
9 MPT
14 KM/T
4 M/S
8 KNOB



130°
Nuværende forhold

Delvis skyet Delvis skyet
Tryk 1026.72 (hPa) - 30.32 (inHg)
Sigt 10 (mil) - 16.1 (km)
Lufthavn
Lufthavnskode KDNN

Lokation: Dalton Municipal Airport
Afstand: 34 (mi)

Metar:
KDNN 281935Z AUTO 13008KT 10SM FEW250 13/M05 A3032 RMK AO2 T01271049

Tid: 01-28-2023 14:35 EST